sensor_id;sensor_type;location;lat;lon;timestamp;pressure;altitude;pressure_sealevel;temperature;humidity
50682;BME280;36779;52.168;20.878;2023-01-08T00:00:41;100685.18;;;4.49;78.01
50682;BME280;36779;52.168;20.878;2023-01-08T00:03:31;100686.45;;;4.49;78.04
50682;BME280;36779;52.168;20.878;2023-01-08T00:06:07;100687.33;;;4.49;78.02
50682;BME280;36779;52.168;20.878;2023-01-08T00:08:37;100681.17;;;4.47;78.00
50682;BME280;36779;52.168;20.878;2023-01-08T00:11:08;100683.64;;;4.44;77.93
50682;BME280;36779;52.168;20.878;2023-01-08T00:13:37;100684.42;;;4.43;78.04
50682;BME280;36779;52.168;20.878;2023-01-08T00:16:09;100682.77;;;4.42;78.04
50682;BME280;36779;52.168;20.878;2023-01-08T00:18:39;100686.44;;;4.40;77.98
50682;BME280;36779;52.168;20.878;2023-01-08T00:21:08;100680.50;;;4.39;78.01
50682;BME280;36779;52.168;20.878;2023-01-08T00:23:39;100681.23;;;4.41;78.14
50682;BME280;36779;52.168;20.878;2023-01-08T00:26:09;100680.16;;;4.39;78.10
50682;BME280;36779;52.168;20.878;2023-01-08T00:28:38;100680.61;;;4.35;78.02
50682;BME280;36779;52.168;20.878;2023-01-08T00:31:10;100680.48;;;4.28;77.93
50682;BME280;36779;52.168;20.878;2023-01-08T00:33:40;100675.58;;;4.20;78.02
50682;BME280;36779;52.168;20.878;2023-01-08T00:36:11;100674.39;;;4.15;78.03
50682;BME280;36779;52.168;20.878;2023-01-08T00:38:41;100670.97;;;4.11;78.08
50682;BME280;36779;52.168;20.878;2023-01-08T00:41:12;100667.93;;;4.10;78.01
50682;BME280;36779;52.168;20.878;2023-01-08T00:43:41;100669.80;;;4.08;78.02
50682;BME280;36779;52.168;20.878;2023-01-08T00:46:12;100668.54;;;4.09;78.06
50682;BME280;36779;52.168;20.878;2023-01-08T00:48:41;100665.66;;;4.09;78.08
50682;BME280;36779;52.168;20.878;2023-01-08T00:51:10;100664.27;;;4.09;77.94
50682;BME280;36779;52.168;20.878;2023-01-08T00:53:39;100663.76;;;4.09;77.98
50682;BME280;36779;52.168;20.878;2023-01-08T00:56:13;100667.46;;;4.06;77.92
50682;BME280;36779;52.168;20.878;2023-01-08T00:58:42;100667.03;;;4.03;77.90
50682;BME280;36779;52.168;20.878;2023-01-08T01:01:12;100659.44;;;4.01;77.89
50682;BME280;36779;52.168;20.878;2023-01-08T01:03:42;100659.30;;;3.95;77.87
50682;BME280;36779;52.168;20.878;2023-01-08T01:06:12;100664.21;;;3.91;77.85
50682;BME280;36779;52.168;20.878;2023-01-08T01:08:42;100661.42;;;3.86;77.87
50682;BME280;36779;52.168;20.878;2023-01-08T01:11:17;100654.45;;;3.80;77.91
50682;BME280;36779;52.168;20.878;2023-01-08T01:13:49;100650.59;;;3.75;77.90
50682;BME280;36779;52.168;20.878;2023-01-08T01:16:27;100650.56;;;3.71;77.97
50682;BME280;36779;52.168;20.878;2023-01-08T01:18:56;100647.92;;;3.66;78.00
50682;BME280;36779;52.168;20.878;2023-01-08T01:21:27;100642.35;;;3.63;77.88
50682;BME280;36779;52.168;20.878;2023-01-08T01:24:00;100639.52;;;3.61;77.96
50682;BME280;36779;52.168;20.878;2023-01-08T01:26:31;100638.50;;;3.60;77.86
50682;BME280;36779;52.168;20.878;2023-01-08T01:29:00;100641.95;;;3.59;78.04
50682;BME280;36779;52.168;20.878;2023-01-08T01:31:30;100651.06;;;3.57;78.00
50682;BME280;36779;52.168;20.878;2023-01-08T01:34:00;100648.11;;;3.54;77.93
50682;BME280;36779;52.168;20.878;2023-01-08T01:36:28;100652.23;;;3.50;77.90
50682;BME280;36779;52.168;20.878;2023-01-08T01:38:58;100647.96;;;3.48;77.94
50682;BME280;36779;52.168;20.878;2023-01-08T01:41:29;100645.99;;;3.46;77.91
50682;BME280;36779;52.168;20.878;2023-01-08T01:46:43;100636.93;;;3.43;77.98
50682;BME280;36779;52.168;20.878;2023-01-08T01:49:17;100635.48;;;3.41;77.94
50682;BME280;36779;52.168;20.878;2023-01-08T01:51:49;100632.80;;;3.37;78.03
50682;BME280;36779;52.168;20.878;2023-01-08T01:54:22;100624.30;;;3.33;78.10
50682;BME280;36779;52.168;20.878;2023-01-08T01:56:51;100625.36;;;3.28;78.06
50682;BME280;36779;52.168;20.878;2023-01-08T01:59:20;100626.90;;;3.26;78.02
50682;BME280;36779;52.168;20.878;2023-01-08T02:01:49;100621.61;;;3.26;78.07
50682;BME280;36779;52.168;20.878;2023-01-08T02:04:22;100617.10;;;3.26;78.07
50682;BME280;36779;52.168;20.878;2023-01-08T02:06:58;100616.45;;;3.25;78.01
50682;BME280;36779;52.168;20.878;2023-01-08T02:09:35;100614.42;;;3.26;78.16
50682;BME280;36779;52.168;20.878;2023-01-08T02:12:16;100600.23;;;3.28;78.05
50682;BME280;36779;52.168;20.878;2023-01-08T02:15:02;100603.20;;;3.31;78.11
50682;BME280;36779;52.168;20.878;2023-01-08T02:17:38;100598.64;;;3.33;78.23
50682;BME280;36779;52.168;20.878;2023-01-08T02:20:16;100595.29;;;3.36;78.24
50682;BME280;36779;52.168;20.878;2023-01-08T02:22:59;100590.45;;;3.37;78.23
50682;BME280;36779;52.168;20.878;2023-01-08T02:25:52;100585.81;;;3.40;78.33
50682;BME280;36779;52.168;20.878;2023-01-08T02:28:22;100584.07;;;3.43;78.16
50682;BME280;36779;52.168;20.878;2023-01-08T02:30:54;100586.94;;;3.44;78.25
50682;BME280;36779;52.168;20.878;2023-01-08T02:33:26;100582.86;;;3.47;78.27
50682;BME280;36779;52.168;20.878;2023-01-08T02:36:22;100575.34;;;3.49;78.19
50682;BME280;36779;52.168;20.878;2023-01-08T02:39:00;100569.55;;;3.51;78.27
50682;BME280;36779;52.168;20.878;2023-01-08T02:41:38;100571.48;;;3.53;78.23
50682;BME280;36779;52.168;20.878;2023-01-08T02:44:14;100568.33;;;3.56;78.32
50682;BME280;36779;52.168;20.878;2023-01-08T02:46:46;100566.90;;;3.59;78.22
50682;BME280;36779;52.168;20.878;2023-01-08T02:49:21;100569.21;;;3.61;78.29
50682;BME280;36779;52.168;20.878;2023-01-08T02:51:54;100569.33;;;3.62;78.28
50682;BME280;36779;52.168;20.878;2023-01-08T02:54:27;100572.52;;;3.61;78.30
50682;BME280;36779;52.168;20.878;2023-01-08T02:57:00;100566.37;;;3.61;78.27
50682;BME280;36779;52.168;20.878;2023-01-08T02:59:33;100563.74;;;3.59;78.32
50682;BME280;36779;52.168;20.878;2023-01-08T03:02:04;100564.90;;;3.55;78.30
50682;BME280;36779;52.168;20.878;2023-01-08T03:04:42;100564.42;;;3.51;78.31
50682;BME280;36779;52.168;20.878;2023-01-08T03:07:14;100562.15;;;3.49;78.20
50682;BME280;36779;52.168;20.878;2023-01-08T03:09:54;100562.29;;;3.47;78.16
50682;BME280;36779;52.168;20.878;2023-01-08T03:12:35;100565.20;;;3.46;78.26
50682;BME280;36779;52.168;20.878;2023-01-08T03:15:15;100562.77;;;3.46;78.23
50682;BME280;36779;52.168;20.878;2023-01-08T03:17:48;100562.39;;;3.46;78.15
50682;BME280;36779;52.168;20.878;2023-01-08T03:20:22;100557.89;;;3.43;78.13
50682;BME280;36779;52.168;20.878;2023-01-08T03:22:55;100556.77;;;3.41;77.99
50682;BME280;36779;52.168;20.878;2023-01-08T03:25:26;100553.48;;;3.38;78.13
50682;BME280;36779;52.168;20.878;2023-01-08T03:27:58;100555.16;;;3.35;78.04
50682;BME280;36779;52.168;20.878;2023-01-08T03:30:30;100551.84;;;3.27;78.00
50682;BME280;36779;52.168;20.878;2023-01-08T03:33:01;100549.52;;;3.17;77.91
50682;BME280;36779;52.168;20.878;2023-01-08T03:35:31;100548.88;;;3.09;77.94
50682;BME280;36779;52.168;20.878;2023-01-08T03:38:06;100543.77;;;3.02;77.93
50682;BME280;36779;52.168;20.878;2023-01-08T03:40:46;100539.61;;;2.97;78.01
50682;BME280;36779;52.168;20.878;2023-01-08T03:43:16;100543.41;;;2.93;77.93
50682;BME280;36779;52.168;20.878;2023-01-08T03:45:50;100536.01;;;2.91;78.02
50682;BME280;36779;52.168;20.878;2023-01-08T03:48:22;100533.52;;;2.89;78.03
50682;BME280;36779;52.168;20.878;2023-01-08T03:50:54;100539.60;;;2.87;77.92
50682;BME280;36779;52.168;20.878;2023-01-08T03:53:24;100541.30;;;2.86;78.02
50682;BME280;36779;52.168;20.878;2023-01-08T03:55:54;100541.44;;;2.83;78.09
50682;BME280;36779;52.168;20.878;2023-01-08T03:58:23;100544.59;;;2.83;78.02
50682;BME280;36779;52.168;20.878;2023-01-08T04:00:54;100547.45;;;2.82;78.17
50682;BME280;36779;52.168;20.878;2023-01-08T04:03:24;100544.28;;;2.82;78.19
50682;BME280;36779;52.168;20.878;2023-01-08T04:05:53;100540.39;;;2.83;78.14
50682;BME280;36779;52.168;20.878;2023-01-08T04:08:22;100541.37;;;2.82;78.02
50682;BME280;36779;52.168;20.878;2023-01-08T04:10:54;100538.02;;;2.79;78.03
50682;BME280;36779;52.168;20.878;2023-01-08T04:13:23;100543.46;;;2.77;78.08
50682;BME280;36779;52.168;20.878;2023-01-08T04:15:54;100548.94;;;2.74;78.09
50682;BME280;36779;52.168;20.878;2023-01-08T04:18:23;100548.07;;;2.69;78.12
50682;BME280;36779;52.168;20.878;2023-01-08T04:20:54;100552.54;;;2.65;78.07
50682;BME280;36779;52.168;20.878;2023-01-08T04:23:23;100551.00;;;2.62;78.12
50682;BME280;36779;52.168;20.878;2023-01-08T04:25:53;100545.89;;;2.60;78.07
50682;BME280;36779;52.168;20.878;2023-01-08T04:28:23;100542.23;;;2.59;78.12
50682;BME280;36779;52.168;20.878;2023-01-08T04:30:54;100536.45;;;2.59;78.18
50682;BME280;36779;52.168;20.878;2023-01-08T04:33:23;100532.04;;;2.60;78.19
50682;BME280;36779;52.168;20.878;2023-01-08T04:35:54;100531.66;;;2.60;78.17
50682;BME280;36779;52.168;20.878;2023-01-08T04:38:25;100529.58;;;2.62;78.17
50682;BME280;36779;52.168;20.878;2023-01-08T04:40:56;100531.23;;;2.64;78.07
50682;BME280;36779;52.168;20.878;2023-01-08T04:43:26;100535.83;;;2.66;78.18
50682;BME280;36779;52.168;20.878;2023-01-08T04:45:58;100533.70;;;2.69;78.30
50682;BME280;36779;52.168;20.878;2023-01-08T04:48:28;100533.42;;;2.70;78.14
50682;BME280;36779;52.168;20.878;2023-01-08T04:50:58;100531.45;;;2.71;78.20
50682;BME280;36779;52.168;20.878;2023-01-08T04:53:29;100523.59;;;2.73;78.32
50682;BME280;36779;52.168;20.878;2023-01-08T04:56:02;100524.91;;;2.74;78.21
50682;BME280;36779;52.168;20.878;2023-01-08T04:58:33;100525.83;;;2.73;78.30
50682;BME280;36779;52.168;20.878;2023-01-08T05:01:15;100520.14;;;2.74;78.33
50682;BME280;36779;52.168;20.878;2023-01-08T05:03:46;100520.02;;;2.73;78.35
50682;BME280;36779;52.168;20.878;2023-01-08T05:06:15;100521.67;;;2.70;78.27
50682;BME280;36779;52.168;20.878;2023-01-08T05:08:50;100519.09;;;2.67;78.31
50682;BME280;36779;52.168;20.878;2023-01-08T05:11:22;100517.50;;;2.67;78.22
50682;BME280;36779;52.168;20.878;2023-01-08T05:14:00;100516.52;;;2.68;78.30
50682;BME280;36779;52.168;20.878;2023-01-08T05:16:29;100517.04;;;2.71;78.30
50682;BME280;36779;52.168;20.878;2023-01-08T05:18:59;100515.27;;;2.74;78.32
50682;BME280;36779;52.168;20.878;2023-01-08T05:21:28;100508.76;;;2.76;78.28
50682;BME280;36779;52.168;20.878;2023-01-08T05:23:57;100503.67;;;2.79;78.53
50682;BME280;36779;52.168;20.878;2023-01-08T05:26:26;100499.95;;;2.81;78.23
50682;BME280;36779;52.168;20.878;2023-01-08T05:28:58;100497.59;;;2.85;78.34
50682;BME280;36779;52.168;20.878;2023-01-08T05:31:27;100495.86;;;2.88;78.28
50682;BME280;36779;52.168;20.878;2023-01-08T05:33:58;100494.84;;;2.89;78.39
50682;BME280;36779;52.168;20.878;2023-01-08T05:36:28;100494.16;;;2.91;78.39
50682;BME280;36779;52.168;20.878;2023-01-08T05:38:58;100495.30;;;2.92;78.34
50682;BME280;36779;52.168;20.878;2023-01-08T05:41:27;100493.02;;;2.92;78.27
50682;BME280;36779;52.168;20.878;2023-01-08T05:43:59;100495.60;;;2.91;78.37
50682;BME280;36779;52.168;20.878;2023-01-08T05:46:29;100500.98;;;2.89;78.36
50682;BME280;36779;52.168;20.878;2023-01-08T05:48:58;100497.30;;;2.89;78.27
50682;BME280;36779;52.168;20.878;2023-01-08T05:51:30;100492.66;;;2.88;78.28
50682;BME280;36779;52.168;20.878;2023-01-08T05:54:02;100494.56;;;2.88;78.35
50682;BME280;36779;52.168;20.878;2023-01-08T05:56:33;100494.95;;;2.88;78.25
50682;BME280;36779;52.168;20.878;2023-01-08T05:59:02;100491.17;;;2.87;78.19
50682;BME280;36779;52.168;20.878;2023-01-08T06:01:34;100490.80;;;2.87;78.22
50682;BME280;36779;52.168;20.878;2023-01-08T06:04:04;100486.27;;;2.87;78.27
50682;BME280;36779;52.168;20.878;2023-01-08T06:06:33;100484.95;;;2.85;78.24
50682;BME280;36779;52.168;20.878;2023-01-08T06:09:05;100489.04;;;2.82;78.33
50682;BME280;36779;52.168;20.878;2023-01-08T06:11:34;100493.34;;;2.78;78.24
50682;BME280;36779;52.168;20.878;2023-01-08T06:14:02;100485.20;;;2.74;78.24
50682;BME280;36779;52.168;20.878;2023-01-08T06:16:32;100480.95;;;2.70;78.26
50682;BME280;36779;52.168;20.878;2023-01-08T06:19:01;100483.11;;;2.67;78.18
50682;BME280;36779;52.168;20.878;2023-01-08T06:21:30;100485.29;;;2.66;78.35
50682;BME280;36779;52.168;20.878;2023-01-08T06:23:59;100483.06;;;2.65;78.25
50682;BME280;36779;52.168;20.878;2023-01-08T06:26:28;100476.34;;;2.64;78.23
50682;BME280;36779;52.168;20.878;2023-01-08T06:28:57;100474.40;;;2.64;78.24
50682;BME280;36779;52.168;20.878;2023-01-08T06:31:26;100469.50;;;2.64;78.23
50682;BME280;36779;52.168;20.878;2023-01-08T06:33:55;100469.98;;;2.64;78.23
50682;BME280;36779;52.168;20.878;2023-01-08T06:36:24;100468.45;;;2.63;78.22
50682;BME280;36779;52.168;20.878;2023-01-08T06:38:56;100467.94;;;2.63;78.26
50682;BME280;36779;52.168;20.878;2023-01-08T06:41:25;100469.33;;;2.63;78.22
50682;BME280;36779;52.168;20.878;2023-01-08T06:43:57;100471.61;;;2.63;78.28
50682;BME280;36779;52.168;20.878;2023-01-08T06:46:26;100468.30;;;2.63;78.24
50682;BME280;36779;52.168;20.878;2023-01-08T06:48:56;100465.33;;;2.63;78.27
50682;BME280;36779;52.168;20.878;2023-01-08T06:51:26;100460.79;;;2.63;78.37
50682;BME280;36779;52.168;20.878;2023-01-08T06:53:55;100463.20;;;2.61;78.32
50682;BME280;36779;52.168;20.878;2023-01-08T06:56:25;100455.50;;;2.58;78.21
50682;BME280;36779;52.168;20.878;2023-01-08T06:58:58;100454.47;;;2.53;78.30
50682;BME280;36779;52.168;20.878;2023-01-08T07:01:27;100457.04;;;2.48;78.19
50682;BME280;36779;52.168;20.878;2023-01-08T07:03:56;100461.38;;;2.46;78.30
50682;BME280;36779;52.168;20.878;2023-01-08T07:06:25;100461.80;;;2.46;78.12
50682;BME280;36779;52.168;20.878;2023-01-08T07:08:54;100465.39;;;2.45;78.30
50682;BME280;36779;52.168;20.878;2023-01-08T07:11:24;100470.17;;;2.44;78.13
50682;BME280;36779;52.168;20.878;2023-01-08T07:13:57;100465.70;;;2.45;78.26
50682;BME280;36779;52.168;20.878;2023-01-08T07:16:26;100458.90;;;2.47;78.30
50682;BME280;36779;52.168;20.878;2023-01-08T07:18:56;100454.14;;;2.47;78.24
50682;BME280;36779;52.168;20.878;2023-01-08T07:21:25;100450.29;;;2.47;78.30
50682;BME280;36779;52.168;20.878;2023-01-08T07:23:55;100450.24;;;2.48;78.35
50682;BME280;36779;52.168;20.878;2023-01-08T07:26:24;100447.45;;;2.48;78.21
50682;BME280;36779;52.168;20.878;2023-01-08T07:29:00;100443.49;;;2.46;78.15
50682;BME280;36779;52.168;20.878;2023-01-08T07:31:29;100433.98;;;2.45;78.22
50682;BME280;36779;52.168;20.878;2023-01-08T07:33:59;100431.66;;;2.43;78.36
50682;BME280;36779;52.168;20.878;2023-01-08T07:36:27;100432.99;;;2.41;78.25
50682;BME280;36779;52.168;20.878;2023-01-08T07:38:57;100430.04;;;2.41;78.21
50682;BME280;36779;52.168;20.878;2023-01-08T07:41:26;100433.72;;;2.41;78.19
50682;BME280;36779;52.168;20.878;2023-01-08T07:43:59;100431.09;;;2.41;78.23
50682;BME280;36779;52.168;20.878;2023-01-08T07:46:30;100423.70;;;2.41;78.32
50682;BME280;36779;52.168;20.878;2023-01-08T07:49:00;100419.13;;;2.41;78.26
50682;BME280;36779;52.168;20.878;2023-01-08T07:51:29;100418.88;;;2.42;78.22
50682;BME280;36779;52.168;20.878;2023-01-08T07:53:58;100422.84;;;2.46;78.21
50682;BME280;36779;52.168;20.878;2023-01-08T07:56:27;100416.04;;;2.48;78.26
50682;BME280;36779;52.168;20.878;2023-01-08T07:58:59;100414.60;;;2.48;78.28
50682;BME280;36779;52.168;20.878;2023-01-08T08:01:28;100412.73;;;2.47;78.25
50682;BME280;36779;52.168;20.878;2023-01-08T08:03:58;100411.95;;;2.46;78.31
50682;BME280;36779;52.168;20.878;2023-01-08T08:06:26;100411.77;;;2.44;78.29
50682;BME280;36779;52.168;20.878;2023-01-08T08:08:57;100414.03;;;2.42;78.25
50682;BME280;36779;52.168;20.878;2023-01-08T08:11:27;100413.83;;;2.39;78.33
50682;BME280;36779;52.168;20.878;2023-01-08T08:13:59;100413.70;;;2.41;78.31
50682;BME280;36779;52.168;20.878;2023-01-08T08:16:28;100417.80;;;2.43;78.25
50682;BME280;36779;52.168;20.878;2023-01-08T08:18:58;100419.82;;;2.44;78.26
50682;BME280;36779;52.168;20.878;2023-01-08T08:21:27;100422.30;;;2.44;78.14
50682;BME280;36779;52.168;20.878;2023-01-08T08:23:57;100422.60;;;2.45;78.25
50682;BME280;36779;52.168;20.878;2023-01-08T08:26:27;100418.23;;;2.46;78.42
50682;BME280;36779;52.168;20.878;2023-01-08T08:28:59;100413.36;;;2.48;78.28
50682;BME280;36779;52.168;20.878;2023-01-08T08:31:28;100402.26;;;2.49;78.37
50682;BME280;36779;52.168;20.878;2023-01-08T08:33:57;100399.31;;;2.48;78.34
50682;BME280;36779;52.168;20.878;2023-01-08T08:36:30;100400.70;;;2.47;78.34
50682;BME280;36779;52.168;20.878;2023-01-08T08:39:00;100393.42;;;2.48;78.32
50682;BME280;36779;52.168;20.878;2023-01-08T08:41:29;100389.00;;;2.48;78.27
50682;BME280;36779;52.168;20.878;2023-01-08T08:43:58;100380.80;;;2.47;78.30
50682;BME280;36779;52.168;20.878;2023-01-08T08:46:28;100382.50;;;2.48;78.31
50682;BME280;36779;52.168;20.878;2023-01-08T08:48:57;100383.50;;;2.51;78.31
50682;BME280;36779;52.168;20.878;2023-01-08T08:51:29;100385.50;;;2.55;78.46
50682;BME280;36779;52.168;20.878;2023-01-08T08:53:58;100380.71;;;2.58;78.28
50682;BME280;36779;52.168;20.878;2023-01-08T08:56:26;100375.99;;;2.61;78.42
50682;BME280;36779;52.168;20.878;2023-01-08T08:58:59;100370.77;;;2.62;78.26
50682;BME280;36779;52.168;20.878;2023-01-08T09:01:29;100366.86;;;2.63;78.42
50682;BME280;36779;52.168;20.878;2023-01-08T09:03:59;100380.13;;;2.64;78.37
50682;BME280;36779;52.168;20.878;2023-01-08T09:06:30;100391.02;;;2.67;78.33
50682;BME280;36779;52.168;20.878;2023-01-08T09:09:01;100388.14;;;2.70;78.45
50682;BME280;36779;52.168;20.878;2023-01-08T09:11:31;100392.00;;;2.70;78.37
50682;BME280;36779;52.168;20.878;2023-01-08T09:14:01;100392.59;;;2.71;78.44
50682;BME280;36779;52.168;20.878;2023-01-08T09:16:29;100390.92;;;2.73;78.19
50682;BME280;36779;52.168;20.878;2023-01-08T09:19:00;100389.93;;;2.76;78.36
50682;BME280;36779;52.168;20.878;2023-01-08T09:21:28;100376.54;;;2.79;78.29
50682;BME280;36779;52.168;20.878;2023-01-08T09:23:57;100369.56;;;2.81;78.32
50682;BME280;36779;52.168;20.878;2023-01-08T09:26:26;100366.86;;;2.82;78.31
50682;BME280;36779;52.168;20.878;2023-01-08T09:28:59;100368.81;;;2.82;78.25
50682;BME280;36779;52.168;20.878;2023-01-08T09:31:32;100362.28;;;2.80;78.18
50682;BME280;36779;52.168;20.878;2023-01-08T09:34:03;100363.05;;;2.79;78.31
50682;BME280;36779;52.168;20.878;2023-01-08T09:36:32;100361.46;;;2.79;78.33
50682;BME280;36779;52.168;20.878;2023-01-08T09:39:02;100357.09;;;2.81;78.25
50682;BME280;36779;52.168;20.878;2023-01-08T09:41:41;100356.44;;;2.86;78.35
50682;BME280;36779;52.168;20.878;2023-01-08T09:44:14;100360.95;;;2.91;78.25
50682;BME280;36779;52.168;20.878;2023-01-08T09:46:46;100352.51;;;2.94;78.26
50682;BME280;36779;52.168;20.878;2023-01-08T09:49:20;100351.35;;;2.95;78.26
50682;BME280;36779;52.168;20.878;2023-01-08T09:51:53;100350.24;;;2.95;78.23
50682;BME280;36779;52.168;20.878;2023-01-08T09:54:26;100346.95;;;2.97;78.23
50682;BME280;36779;52.168;20.878;2023-01-08T09:56:58;100339.25;;;2.99;78.30
50682;BME280;36779;52.168;20.878;2023-01-08T09:59:27;100337.73;;;3.01;78.39
50682;BME280;36779;52.168;20.878;2023-01-08T10:01:56;100338.96;;;3.03;78.37
50682;BME280;36779;52.168;20.878;2023-01-08T10:04:27;100334.27;;;3.10;78.46
50682;BME280;36779;52.168;20.878;2023-01-08T10:07:01;100334.20;;;3.15;78.35
50682;BME280;36779;52.168;20.878;2023-01-08T10:09:33;100329.45;;;3.20;78.31
50682;BME280;36779;52.168;20.878;2023-01-08T10:12:04;100328.98;;;3.28;78.44
50682;BME280;36779;52.168;20.878;2023-01-08T10:14:36;100330.48;;;3.34;78.31
50682;BME280;36779;52.168;20.878;2023-01-08T10:17:11;100324.15;;;3.39;78.47
50682;BME280;36779;52.168;20.878;2023-01-08T10:19:44;100322.48;;;3.42;78.32
50682;BME280;36779;52.168;20.878;2023-01-08T10:22:16;100321.11;;;3.44;78.36
50682;BME280;36779;52.168;20.878;2023-01-08T10:24:46;100320.09;;;3.48;78.56
50682;BME280;36779;52.168;20.878;2023-01-08T10:27:24;100311.80;;;3.49;78.28
50682;BME280;36779;52.168;20.878;2023-01-08T10:30:05;100307.14;;;3.47;78.25
50682;BME280;36779;52.168;20.878;2023-01-08T10:32:44;100301.54;;;3.47;78.14
50682;BME280;36779;52.168;20.878;2023-01-08T10:35:17;100298.84;;;3.46;78.12
50682;BME280;36779;52.168;20.878;2023-01-08T10:37:47;100295.38;;;3.45;78.12
50682;BME280;36779;52.168;20.878;2023-01-08T10:40:27;100291.16;;;3.45;78.18
50682;BME280;36779;52.168;20.878;2023-01-08T10:43:19;100281.11;;;3.44;78.03
50682;BME280;36779;52.168;20.878;2023-01-08T10:46:03;100276.80;;;3.40;77.97
50682;BME280;36779;52.168;20.878;2023-01-08T10:48:38;100268.47;;;3.37;78.09
50682;BME280;36779;52.168;20.878;2023-01-08T10:51:15;100266.29;;;3.35;78.12
50682;BME280;36779;52.168;20.878;2023-01-08T10:53:48;100258.44;;;3.35;78.17
50682;BME280;36779;52.168;20.878;2023-01-08T10:56:27;100258.98;;;3.37;78.19
50682;BME280;36779;52.168;20.878;2023-01-08T10:59:02;100253.80;;;3.38;78.02
50682;BME280;36779;52.168;20.878;2023-01-08T11:01:50;100258.94;;;3.37;78.01
50682;BME280;36779;52.168;20.878;2023-01-08T11:59:02;100225.50;;;3.24;77.68
50682;BME280;36779;52.168;20.878;2023-01-08T12:02:03;100226.05;;;3.24;77.63
50682;BME280;36779;52.168;20.878;2023-01-08T12:05:29;100228.55;;;3.24;77.67
50682;BME280;36779;52.168;20.878;2023-01-08T12:08:31;100224.20;;;3.21;77.62
50682;BME280;36779;52.168;20.878;2023-01-08T12:11:27;100225.02;;;3.17;77.58
50682;BME280;36779;52.168;20.878;2023-01-08T12:17:55;100205.46;;;3.11;77.53
50682;BME280;36779;52.168;20.878;2023-01-08T12:20:55;100192.77;;;3.10;77.56
50682;BME280;36779;52.168;20.878;2023-01-08T12:24:07;100190.99;;;3.10;77.51
50682;BME280;36779;52.168;20.878;2023-01-08T12:27:11;100196.96;;;3.10;77.55
50682;BME280;36779;52.168;20.878;2023-01-08T12:30:34;100206.45;;;3.08;77.56
50682;BME280;36779;52.168;20.878;2023-01-08T12:33:38;100202.67;;;3.04;77.61
50682;BME280;36779;52.168;20.878;2023-01-08T12:36:36;100202.09;;;3.00;77.62
50682;BME280;36779;52.168;20.878;2023-01-08T12:39:33;100205.27;;;2.98;77.65
50682;BME280;36779;52.168;20.878;2023-01-08T12:42:39;100203.08;;;2.96;77.61
50682;BME280;36779;52.168;20.878;2023-01-08T12:45:45;100202.92;;;2.94;77.51
50682;BME280;36779;52.168;20.878;2023-01-08T12:48:38;100202.30;;;2.93;77.49
50682;BME280;36779;52.168;20.878;2023-01-08T12:51:37;100197.73;;;2.93;77.38
50682;BME280;36779;52.168;20.878;2023-01-08T12:54:32;100195.52;;;2.94;77.50
50682;BME280;36779;52.168;20.878;2023-01-08T12:57:33;100192.80;;;2.95;77.52
50682;BME280;36779;52.168;20.878;2023-01-08T13:00:55;100190.84;;;2.94;77.47
50682;BME280;36779;52.168;20.878;2023-01-08T13:03:49;100188.90;;;2.89;77.48
50682;BME280;36779;52.168;20.878;2023-01-08T13:07:17;100197.00;;;2.87;77.50
50682;BME280;36779;52.168;20.878;2023-01-08T13:10:34;100190.33;;;2.87;77.50
50682;BME280;36779;52.168;20.878;2023-01-08T13:13:28;100189.50;;;2.88;77.51
50682;BME280;36779;52.168;20.878;2023-01-08T13:16:21;100184.56;;;2.89;77.35
50682;BME280;36779;52.168;20.878;2023-01-08T13:19:24;100178.54;;;2.89;77.34
50682;BME280;36779;52.168;20.878;2023-01-08T13:22:28;100176.48;;;2.91;77.37
50682;BME280;36779;52.168;20.878;2023-01-08T13:25:31;100170.30;;;2.89;77.45
50682;BME280;36779;52.168;20.878;2023-01-08T13:28:46;100170.63;;;2.87;77.47
50682;BME280;36779;52.168;20.878;2023-01-08T13:31:40;100169.41;;;2.82;77.42
50682;BME280;36779;52.168;20.878;2023-01-08T13:35:15;100172.48;;;2.79;77.49
50682;BME280;36779;52.168;20.878;2023-01-08T13:38:33;100168.71;;;2.78;77.33
50682;BME280;36779;52.168;20.878;2023-01-08T13:41:28;100166.33;;;2.79;77.50
50682;BME280;36779;52.168;20.878;2023-01-08T13:44:50;100169.96;;;2.80;77.39
50682;BME280;36779;52.168;20.878;2023-01-08T13:47:46;100164.84;;;2.80;77.35
50682;BME280;36779;52.168;20.878;2023-01-08T13:50:45;100161.00;;;2.82;77.50
50682;BME280;36779;52.168;20.878;2023-01-08T13:53:36;100153.75;;;2.80;77.56
50682;BME280;36779;52.168;20.878;2023-01-08T13:56:29;100156.94;;;2.78;77.44
50682;BME280;36779;52.168;20.878;2023-01-08T13:59:39;100154.96;;;2.76;77.36
50682;BME280;36779;52.168;20.878;2023-01-08T14:02:33;100171.71;;;2.73;77.41
50682;BME280;36779;52.168;20.878;2023-01-08T14:05:28;100182.59;;;2.71;77.49
50682;BME280;36779;52.168;20.878;2023-01-08T14:08:22;100180.53;;;2.70;77.41
50682;BME280;36779;52.168;20.878;2023-01-08T14:11:13;100174.70;;;2.71;77.44
50682;BME280;36779;52.168;20.878;2023-01-08T14:14:03;100168.73;;;2.71;77.46
50682;BME280;36779;52.168;20.878;2023-01-08T14:16:57;100162.64;;;2.72;77.43
50682;BME280;36779;52.168;20.878;2023-01-08T14:20:18;100160.24;;;2.74;77.29
50682;BME280;36779;52.168;20.878;2023-01-08T14:23:27;100154.20;;;2.74;77.37
50682;BME280;36779;52.168;20.878;2023-01-08T14:26:49;100150.73;;;2.74;77.47
50682;BME280;36779;52.168;20.878;2023-01-08T14:29:56;100152.03;;;2.71;77.41
50682;BME280;36779;52.168;20.878;2023-01-08T14:32:49;100155.63;;;2.67;77.38
50682;BME280;36779;52.168;20.878;2023-01-08T14:35:55;100152.32;;;2.65;77.41
50682;BME280;36779;52.168;20.878;2023-01-08T14:38:48;100146.11;;;2.63;77.54
50682;BME280;36779;52.168;20.878;2023-01-08T14:41:49;100140.00;;;2.63;77.35